Time;durP1;ratioP1;P1;durP2;ratioP2;P2;SDS_P1;SDS_P2;PMS_P1;PMS_P2;Temp;Humidity;BMP_temperature;BMP_pressure;BME280_temperature;BME280_humidity;BME280_pressure;Samples;Min_cycle;Max_cycle;Signal;HPM_P1;HPM_P2
2022/04/24 00:01:13;;;;;;;12.65;7.38;;;;;;;30.65;51.96;100758.47;5033111;28;69616;-32
2022/04/24 00:03:44;;;;;;;7.35;6.80;;;;;;;30.69;51.48;100765.91;5034509;28;66798;-32
2022/04/24 00:06:14;;;;;;;7.28;6.78;;;;;;;30.73;51.75;100764.44;5001206;28;69217;-33
2022/04/24 00:08:44;;;;;;;8.40;7.60;;;;;;;30.79;51.85;100762.72;5031431;28;66459;-32
2022/04/24 00:11:14;;;;;;;12.95;7.03;;;;;;;30.85;52.73;100758.34;5034056;28;69966;-32
2022/04/24 00:13:44;;;;;;;11.00;8.10;;;;;;;30.90;54.01;100767.44;5032915;28;66551;-34
2022/04/24 00:16:14;;;;;;;12.93;9.52;;;;;;;30.99;55.29;100776.09;5029582;28;70106;-33
2022/04/24 00:18:45;;;;;;;15.65;10.25;;;;;;;30.99;57.81;100761.75;5033530;28;64986;-33
2022/04/24 00:21:15;;;;;;;14.30;10.45;;;;;;;31.03;58.75;100761.03;5032306;28;70510;-32
2022/04/24 00:23:46;;;;;;;16.08;10.93;;;;;;;31.14;58.84;100773.84;5029033;28;67329;-34
2022/04/24 00:26:16;;;;;;;12.18;9.85;;;;;;;31.25;59.37;100785.00;5029223;28;69082;-34
2022/04/24 00:28:46;;;;;;;11.93;10.73;;;;;;;31.21;60.15;100779.22;5028104;28;65966;-33
2022/04/24 00:31:17;;;;;;;16.75;11.05;;;;;;;31.28;60.83;100784.56;5034257;28;69963;-34
2022/04/24 00:33:47;;;;;;;13.07;10.68;;;;;;;31.38;61.27;100793.03;5032969;28;66291;-36
2022/04/24 00:36:17;;;;;;;22.73;12.27;;;;;;;31.39;63.14;100797.38;5032027;28;69982;-35
2022/04/24 00:38:47;;;;;;;33.20;13.25;;;;;;;31.44;63.83;100810.25;5029686;28;65841;-35
2022/04/24 00:41:18;;;;;;;23.33;12.90;;;;;;;31.43;65.57;100809.44;5034134;28;70364;-35
2022/04/24 00:43:53;;;;;;;29.35;12.52;;;;;;;31.50;66.24;100812.88;5034590;28;66711;-37
2022/04/24 00:46:51;;;;;;;21.98;12.45;;;;;;;31.50;66.55;100815.59;5026293;28;69489;-37
2022/04/24 00:49:22;;;;;;;31.00;12.73;;;;;;;31.50;66.08;100815.59;5032452;28;66226;-37
2022/04/24 00:51:53;;;;;;;21.85;12.68;;;;;;;31.55;65.86;100823.06;5033594;28;69500;-37
2022/04/24 00:54:24;;;;;;;19.17;11.82;;;;;;;31.53;65.58;100815.16;5030779;28;65427;-36
2022/04/24 00:56:54;;;;;;;18.65;13.13;;;;;;;31.33;64.84;100765.72;5035178;28;70263;-39
2022/04/24 00:59:25;;;;;;;15.27;12.95;;;;;;;31.69;65.04;100821.03;5005737;28;65406;-37
2022/04/24 01:01:55;;;;;;;23.17;14.57;;;;;;;31.68;65.37;100817.50;5031390;28;70838;-37
2022/04/24 01:04:26;;;;;;;16.08;14.38;;;;;;;31.73;65.64;100825.78;5021512;28;66368;-36
2022/04/24 01:06:56;;;;;;;33.30;15.13;;;;;;;31.63;65.21;100802.97;5041471;28;70343;-37
2022/04/24 01:09:27;;;;;;;17.10;14.40;;;;;;;31.78;64.54;100827.78;5038456;28;66453;-35
2022/04/24 01:11:57;;;;;;;21.25;16.55;;;;;;;31.82;64.93;100818.16;5036306;28;69225;-36
2022/04/24 01:14:31;;;;;;;20.23;15.07;;;;;;;31.85;64.60;100825.84;5033852;28;66052;-35
2022/04/24 01:17:03;;;;;;;48.17;15.40;;;;;;;31.86;64.41;100826.66;5033114;28;70094;-35
2022/04/24 01:19:34;;;;;;;29.52;16.05;;;;;;;31.90;64.96;100834.13;5033931;28;66285;-35
2022/04/24 01:22:04;;;;;;;23.48;15.18;;;;;;;31.93;64.89;100828.25;5034658;28;70473;-35
2022/04/24 01:24:35;;;;;;;21.17;13.27;;;;;;;31.97;64.47;100826.72;5035757;28;66380;-37
2022/04/24 01:27:05;;;;;;;20.20;13.43;;;;;;;31.91;64.72;100824.94;5032914;28;70192;-38
2022/04/24 01:29:35;;;;;;;31.17;13.68;;;;;;;32.04;64.50;100835.63;5034131;28;65754;-37
2022/04/24 01:32:06;;;;;;;19.75;12.32;;;;;;;32.02;64.16;100821.44;5033037;28;69897;-39
2022/04/24 01:34:37;;;;;;;19.70;12.45;;;;;;;32.10;63.96;100830.34;5029815;28;66174;-37
2022/04/24 01:37:08;;;;;;;19.58;12.85;;;;;;;32.10;64.78;100828.47;5027995;28;69907;-37
2022/04/24 01:39:38;;;;;;;20.73;12.45;;;;;;;31.68;64.60;100763.25;5028300;28;67257;-41
2022/04/24 01:42:09;;;;;;;19.45;12.43;;;;;;;32.19;63.81;100834.38;5024218;28;70272;-36
2022/04/24 01:44:39;;;;;;;35.40;16.33;;;;;;;32.22;63.63;100834.75;5031018;28;66271;-38
2022/04/24 01:47:11;;;;;;;31.15;16.45;;;;;;;32.24;63.60;100834.53;5032803;28;69894;-37
2022/04/24 01:49:41;;;;;;;30.15;13.20;;;;;;;32.22;63.74;100837.47;5031579;28;66241;-37
2022/04/24 01:52:12;;;;;;;26.95;12.00;;;;;;;32.22;63.21;100834.75;5031322;28;70094;-36
2022/04/24 01:54:42;;;;;;;18.38;11.35;;;;;;;32.26;63.87;100840.53;5030397;28;65315;-36
2022/04/24 01:57:13;;;;;;;18.17;10.85;;;;;;;32.35;63.20;100833.72;5032862;28;70485;-38
2022/04/24 01:59:43;;;;;;;27.25;13.40;;;;;;;32.40;62.90;100833.88;5031832;28;66596;-37
2022/04/24 02:02:13;;;;;;;29.48;18.48;;;;;;;32.43;63.06;100827.97;5028253;28;69444;-41
2022/04/24 02:04:44;;;;;;;35.40;20.83;;;;;;;32.48;62.96;100828.13;5032413;28;66342;-37
2022/04/24 02:07:14;;;;;;;22.63;17.00;;;;;;;32.51;62.97;100826.00;5031497;28;70199;-36
2022/04/24 02:09:44;;;;;;;20.65;15.60;;;;;;;32.53;62.96;100822.00;5030344;28;66259;-37
2022/04/24 02:12:15;;;;;;;25.20;15.23;;;;;;;32.58;62.77;100829.44;5031030;28;70290;-37
2022/04/24 02:14:45;;;;;;;23.83;13.15;;;;;;;32.61;62.70;100826.25;5031455;28;65271;-36
2022/04/24 02:17:16;;;;;;;23.98;14.02;;;;;;;32.63;62.71;100826.88;5028084;28;69688;-37
2022/04/24 02:19:46;;;;;;;33.75;13.30;;;;;;;32.63;62.41;100814.09;5031999;28;65521;-37
2022/04/24 02:22:16;;;;;;;25.25;12.77;;;;;;;32.70;62.28;100819.41;5028429;28;70468;-38
2022/04/24 02:24:46;;;;;;;17.85;12.55;;;;;;;32.75;62.15;100811.41;5029274;28;66805;-37
2022/04/24 02:27:16;;;;;;;28.70;12.63;;;;;;;32.78;61.85;100810.94;5032790;28;69899;-37
2022/04/24 02:29:46;;;;;;;17.88;11.43;;;;;;;32.61;62.01;100780.91;5031949;28;66101;-38
2022/04/24 02:32:17;;;;;;;23.77;11.57;;;;;;;32.82;61.84;100809.41;5030070;28;71259;-37
2022/04/24 02:34:47;;;;;;;18.60;11.32;;;;;;;32.78;61.96;100794.63;5030122;28;66128;-40
2022/04/24 02:37:20;;;;;;;21.27;11.45;;;;;;;32.88;61.43;100808.47;5031432;28;70241;-38
2022/04/24 02:39:50;;;;;;;13.35;10.68;;;;;;;32.91;61.32;100799.84;5032497;28;66418;-39
2022/04/24 02:42:20;;;;;;;18.00;10.57;;;;;;;32.94;61.51;100804.78;5032965;28;69222;-37
2022/04/24 02:44:51;;;;;;;13.23;9.85;;;;;;;33.01;61.20;100810.13;5028794;28;66213;-36
2022/04/24 02:47:21;;;;;;;18.38;9.95;;;;;;;32.97;61.42;100797.25;5030877;28;69102;-38
2022/04/24 02:49:51;;;;;;;10.88;9.90;;;;;;;33.05;61.14;100799.63;5027972;28;66382;-37
2022/04/24 02:52:22;;;;;;;24.42;10.90;;;;;;;33.04;61.31;100792.53;5028832;28;70480;-37
2022/04/24 02:54:52;;;;;;;23.88;11.85;;;;;;;33.08;61.28;100799.16;5030130;28;65040;-38
2022/04/24 02:57:30;;;;;;;24.70;10.73;;;;;;;33.05;60.97;100780.63;5028789;28;69226;-37
2022/04/24 03:00:00;;;;;;;10.37;8.87;;;;;;;33.07;61.26;100792.06;5030571;28;65428;-37
2022/04/24 03:02:30;;;;;;;16.80;9.85;;;;;;;33.17;60.78;100788.75;5034101;28;70614;-38
2022/04/24 03:05:01;;;;;;;23.55;11.05;;;;;;;33.15;60.80;100784.38;5032328;28;66026;-38
2022/04/24 03:07:31;;;;;;;19.52;10.55;;;;;;;33.18;60.96;100783.06;5034864;28;69927;-38
2022/04/24 03:10:01;;;;;;;22.05;11.73;;;;;;;33.11;60.60;100771.50;5030311;28;66559;-38
2022/04/24 03:12:32;;;;;;;27.33;11.80;;;;;;;33.29;60.61;100794.97;5030850;28;69419;-39
2022/04/24 03:15:04;;;;;;;13.38;9.68;;;;;;;33.32;60.31;100784.47;5027662;28;66052;-38
2022/04/24 03:17:35;;;;;;;13.93;9.10;;;;;;;33.29;60.07;100779.53;5025065;28;69322;-38
2022/04/24 03:20:07;;;;;;;16.90;9.35;;;;;;;33.37;59.83;100781.84;5028202;28;66948;-41
2022/04/24 03:22:38;;;;;;;11.45;9.13;;;;;;;33.46;59.75;100773.31;5025766;28;69612;-39
2022/04/24 03:25:10;;;;;;;22.77;9.48;;;;;;;33.49;59.48;100772.81;5024384;28;65723;-37
2022/04/24 03:27:40;;;;;;;20.55;9.55;;;;;;;33.51;59.48;100776.13;5025663;28;69613;-38
2022/04/24 03:30:11;;;;;;;11.68;8.70;;;;;;;33.58;59.24;100771.44;5025694;28;64281;-40
2022/04/24 03:32:42;;;;;;;16.55;8.77;;;;;;;33.59;59.29;100760.28;5024715;28;69962;-41
2022/04/24 03:35:12;;;;;;;21.70;9.20;;;;;;;33.63;58.75;100767.97;5021169;28;65405;-39
2022/04/24 03:37:43;;;;;;;14.57;8.00;;;;;;;33.59;59.07;100754.03;5024268;28;70357;-37
2022/04/24 03:40:13;;;;;;;8.80;8.00;;;;;;;33.64;58.97;100754.13;5018606;28;65920;-38
2022/04/24 03:42:43;;;;;;;11.10;8.30;;;;;;;33.52;58.93;100731.59;5045268;28;69409;-38
2022/04/24 03:45:14;;;;;;;11.25;8.73;;;;;;;33.74;59.17;100761.66;5023125;28;65716;-39
2022/04/24 03:47:45;;;;;;;14.05;8.48;;;;;;;33.61;58.89;100749.19;5024370;28;70674;-38
2022/04/24 03:50:16;;;;;;;15.20;7.93;;;;;;;33.72;58.73;100755.66;5024716;28;64874;-37
2022/04/24 03:52:47;;;;;;;18.27;8.15;;;;;;;33.81;58.22;100760.44;5027461;28;69004;-37
2022/04/24 03:55:17;;;;;;;19.63;7.88;;;;;;;33.73;58.15;100741.78;5027387;28;65676;-40
2022/04/24 03:57:47;;;;;;;15.45;7.53;;;;;;;33.87;57.90;100752.38;5025475;28;69802;-39
2022/04/24 04:00:18;;;;;;;15.90;7.75;;;;;;;33.94;57.59;100756.63;5023872;28;66779;-38
2022/04/24 04:02:49;;;;;;;18.85;8.60;;;;;;;33.95;57.77;100760.16;5031042;28;70405;-39
2022/04/24 04:05:21;;;;;;;10.18;7.55;;;;;;;33.93;58.27;100752.22;5024673;28;66935;-39
2022/04/24 04:07:51;;;;;;;10.98;7.25;;;;;;;33.89;58.74;100755.69;5028626;28;70613;-38
2022/04/24 04:10:22;;;;;;;9.45;7.00;;;;;;;33.87;59.07;100746.94;5031363;28;66187;-39
2022/04/24 04:12:52;;;;;;;6.82;6.32;;;;;;;33.84;58.96;100736.56;5023460;28;69263;-40
2022/04/24 04:15:22;;;;;;;11.45;7.57;;;;;;;33.91;59.11;100738.06;5032512;28;66158;-39
2022/04/24 04:17:52;;;;;;;15.05;10.23;;;;;;;33.85;58.81;100727.31;5026644;28;69782;-39
2022/04/24 04:20:22;;;;;;;13.80;10.77;;;;;;;33.92;57.91;100722.56;5029546;28;66356;-39
2022/04/24 04:22:54;;;;;;;27.92;10.50;;;;;;;34.02;57.83;100739.06;5016476;28;69842;-38
2022/04/24 04:25:25;;;;;;;10.90;9.75;;;;;;;34.01;57.40;100731.97;5027378;28;66249;-40
2022/04/24 04:27:56;;;;;;;9.60;8.63;;;;;;;34.10;57.32;100725.09;5032920;28;70000;-37
2022/04/24 04:30:26;;;;;;;17.25;9.05;;;;;;;34.16;56.95;100724.09;5031746;28;65314;-42
2022/04/24 04:32:56;;;;;;;9.38;8.40;;;;;;;34.22;56.90;100727.72;5022799;28;70403;-37
2022/04/24 04:35:27;;;;;;;12.88;8.13;;;;;;;34.24;56.69;100720.97;5033782;28;66114;-39
2022/04/24 04:37:57;;;;;;;9.27;7.20;;;;;;;34.30;56.41;100718.31;5029742;28;70157;-37
2022/04/24 04:40:28;;;;;;;8.52;7.70;;;;;;;34.32;56.25;100710.72;5030228;28;65672;-37
2022/04/24 04:42:59;;;;;;;8.23;7.50;;;;;;;34.36;56.08;100711.91;5034443;28;70226;-38
2022/04/24 04:45:29;;;;;;;8.93;8.05;;;;;;;34.43;55.90;100704.38;5033674;28;66489;-38
2022/04/24 04:47:59;;;;;;;8.32;7.05;;;;;;;34.50;55.88;100710.47;5028965;28;70245;-39
2022/04/24 04:50:29;;;;;;;7.35;6.65;;;;;;;34.49;55.92;100695.19;5023598;28;66459;-39
2022/04/24 04:52:59;;;;;;;8.50;7.03;;;;;;;34.54;55.87;100695.28;5035603;28;70577;-38
2022/04/24 04:55:30;;;;;;;9.60;6.60;;;;;;;34.53;56.02;100685.47;5026313;28;66286;-38
2022/04/24 04:58:00;;;;;;;18.30;7.25;;;;;;;34.57;55.70;100686.63;5031746;28;69651;-39
2022/04/24 05:00:31;;;;;;;10.55;7.00;;;;;;;34.62;55.27;100683.16;5033191;28;66715;-38
2022/04/24 05:03:01;;;;;;;10.57;6.68;;;;;;;34.68;55.32;100674.81;5032059;28;70515;-37
2022/04/24 05:05:32;;;;;;;12.02;7.07;;;;;;;34.70;55.22;100678.09;5032792;28;66556;-39
2022/04/24 05:08:02;;;;;;;8.70;6.20;;;;;;;34.67;55.53;100665.00;5033846;28;69897;-36
2022/04/24 05:10:33;;;;;;;18.35;6.45;;;;;;;34.69;56.06;100668.28;5033154;28;66172;-38
2022/04/24 05:13:03;;;;;;;10.55;6.32;;;;;;;34.57;55.18;100655.84;5035300;28;69626;-38
2022/04/24 05:15:34;;;;;;;7.32;6.35;;;;;;;34.35;53.76;100640.28;5033814;28;66304;-38
2022/04/24 05:18:04;;;;;;;17.50;6.18;;;;;;;34.24;53.69;100649.34;5038094;28;69738;-38
2022/04/24 05:20:34;;;;;;;10.95;6.20;;;;;;;34.09;52.87;100641.78;5034834;28;66518;-38
2022/04/24 05:23:06;;;;;;;16.23;6.32;;;;;;;33.95;51.99;100629.53;5028882;28;69365;-39
2022/04/24 05:25:36;;;;;;;6.22;5.00;;;;;;;33.82;51.42;100619.78;5034878;28;67000;-39
2022/04/24 05:28:07;;;;;;;6.13;4.80;;;;;;;33.62;50.00;100609.41;5062534;28;69026;-38
2022/04/24 05:30:38;;;;;;;11.77;5.78;;;;;;;33.60;49.90;100611.56;5029481;28;66793;-37
2022/04/24 05:33:08;;;;;;;8.65;5.65;;;;;;;33.54;49.35;100613.38;5025911;28;70206;-39
2022/04/24 05:35:38;;;;;;;4.97;4.63;;;;;;;33.34;49.08;100586.56;5027070;28;64145;-38
2022/04/24 05:38:08;;;;;;;7.15;4.95;;;;;;;33.40;48.32;100605.72;5027809;28;69983;-40
2022/04/24 05:40:38;;;;;;;6.90;4.97;;;;;;;33.33;48.22;100598.53;5027181;28;64489;-42
2022/04/24 05:43:09;;;;;;;7.07;4.90;;;;;;;33.21;48.10;100586.06;5034250;28;70311;-33
2022/04/24 05:45:39;;;;;;;14.27;5.28;;;;;;;33.12;47.40;100583.72;5019127;28;65162;-33
2022/04/24 05:48:09;;;;;;;12.80;5.20;;;;;;;33.17;47.88;100576.75;5027780;28;69574;-34
2022/04/24 05:50:39;;;;;;;14.95;5.30;;;;;;;33.11;47.02;100579.38;5029914;28;66388;-34
2022/04/24 05:53:10;;;;;;;24.15;4.88;;;;;;;33.04;46.95;100562.41;5023147;28;69221;-34
2022/04/24 05:55:40;;;;;;;8.35;5.40;;;;;;;32.97;46.76;100558.13;5023264;28;66377;-32
2022/04/24 05:58:10;;;;;;;9.07;5.13;;;;;;;32.97;46.83;100561.69;5032485;28;70074;-34
2022/04/24 06:00:40;;;;;;;7.70;4.75;;;;;;;32.89;45.86;100546.56;5029397;28;66691;-33
2022/04/24 06:03:11;;;;;;;12.43;5.18;;;;;;;32.81;45.60;100541.53;5030354;28;69234;-35
2022/04/24 06:05:41;;;;;;;9.32;4.72;;;;;;;32.85;45.44;100545.41;5030259;28;66503;-33
2022/04/24 06:08:11;;;;;;;8.93;4.60;;;;;;;32.84;45.23;100546.47;5029384;28;69838;-32
2022/04/24 06:10:43;;;;;;;5.30;4.18;;;;;;;32.78;45.15;100533.84;5029642;28;65132;-34
2022/04/24 06:13:13;;;;;;;5.55;4.20;;;;;;;32.65;44.80;100532.28;5027786;28;69358;-32
2022/04/24 06:15:44;;;;;;;6.88;4.85;;;;;;;32.69;44.11;100535.31;5032913;28;66390;-33
2022/04/24 06:18:15;;;;;;;4.30;3.90;;;;;;;32.72;44.08;100523.97;5038857;28;69927;-33
2022/04/24 06:20:45;;;;;;;5.55;5.10;;;;;;;32.72;43.59;100524.78;5039363;28;65793;-32
2022/04/24 06:23:15;;;;;;;6.80;4.78;;;;;;;32.73;43.17;100514.75;5039668;28;69637;-35
2022/04/24 06:25:47;;;;;;;4.75;4.35;;;;;;;32.73;43.11;100503.88;4989742;28;65480;-32
2022/04/24 06:28:17;;;;;;;5.90;4.80;;;;;;;32.71;42.49;100503.31;5040922;28;70474;-33
2022/04/24 06:30:47;;;;;;;7.07;4.82;;;;;;;32.75;42.71;100501.75;5039248;28;66179;-33
2022/04/24 06:33:18;;;;;;;5.18;4.10;;;;;;;32.67;42.17;100488.56;5040639;28;70262;-32
2022/04/24 06:35:48;;;;;;;6.38;4.07;;;;;;;32.72;42.40;100500.34;5041293;28;65589;-33
2022/04/24 06:38:22;;;;;;;4.57;4.28;;;;;;;32.74;41.99;100472.13;5040064;28;69800;-32
2022/04/24 06:40:53;;;;;;;9.02;4.25;;;;;;;32.75;42.06;100469.16;5053704;28;66141;-33
2022/04/24 06:43:23;;;;;;;4.90;4.53;;;;;;;32.76;41.29;100464.53;5040405;28;70035;-32
2022/04/24 06:45:53;;;;;;;4.70;4.30;;;;;;;32.62;41.67;100443.09;5040672;28;66516;-33
2022/04/24 06:48:24;;;;;;;5.07;4.68;;;;;;;32.72;41.68;100454.16;5040513;28;69475;-34
2022/04/24 06:50:54;;;;;;;4.65;4.25;;;;;;;32.66;41.29;100452.44;5040666;28;66536;-32
2022/04/24 06:53:25;;;;;;;4.53;4.13;;;;;;;32.70;41.80;100460.91;5040997;28;69229;-35
2022/04/24 06:55:56;;;;;;;5.82;4.50;;;;;;;32.64;41.45;100449.13;5040309;28;66171;-33
2022/04/24 06:58:26;;;;;;;4.35;4.05;;;;;;;32.53;41.36;100417.41;5036663;28;70396;-33
2022/04/24 07:00:57;;;;;;;5.00;4.60;;;;;;;32.55;41.45;100426.16;5035455;28;66039;-34
2022/04/24 07:03:35;;;;;;;4.72;4.32;;;;;;;32.65;41.62;100431.78;5035536;28;69669;-33
2022/04/24 07:06:07;;;;;;;4.60;4.30;;;;;;;32.63;41.67;100427.66;5039264;28;65685;-33
2022/04/24 07:08:38;;;;;;;5.38;4.18;;;;;;;32.55;41.05;100419.91;5037305;28;70116;-33
2022/04/24 07:11:08;;;;;;;4.50;4.20;;;;;;;32.17;41.04;100353.44;5040063;28;67476;-32
2022/04/24 07:13:40;;;;;;;4.00;3.58;;;;;;;32.62;40.72;100420.56;5038922;28;70629;-35
2022/04/24 07:16:10;;;;;;;8.88;4.07;;;;;;;32.58;41.42;100403.13;5039144;28;66398;-37
2022/04/24 07:18:41;;;;;;;3.90;3.70;;;;;;;32.63;40.86;100400.50;5032390;28;70542;-34
2022/04/24 07:21:11;;;;;;;4.53;4.20;;;;;;;32.57;41.08;100377.03;5019542;28;66645;-35
2022/04/24 07:23:41;;;;;;;3.97;3.67;;;;;;;32.69;41.11;100399.53;5019981;28;69569;-33
2022/04/24 07:26:11;;;;;;;4.00;3.78;;;;;;;32.69;40.93;100397.63;5020520;28;66591;-32
2022/04/24 07:28:41;;;;;;;4.15;3.85;;;;;;;32.70;40.67;100395.72;5032873;28;69551;-33
2022/04/24 07:31:18;;;;;;;3.42;3.20;;;;;;;32.66;40.58;100381.81;5036936;28;65383;-34
2022/04/24 07:33:48;;;;;;;3.80;3.60;;;;;;;32.56;40.32;100357.19;5028843;28;70176;-33
2022/04/24 07:36:18;;;;;;;4.10;3.60;;;;;;;32.66;39.91;100378.28;5024656;28;66064;-33
2022/04/24 07:38:50;;;;;;;3.88;3.63;;;;;;;32.69;40.21;100384.06;5027701;28;69556;-33
2022/04/24 07:41:20;;;;;;;;;;;;;;;32.42;39.84;100383.78;5026472;28;66281;-34
2022/04/24 07:43:50;;;;;;;3.67;3.47;;;;;;;32.53;40.29;100378.59;5023464;28;70003;-33
2022/04/24 07:46:20;;;;;;;4.57;3.40;;;;;;;32.67;40.19;100391.59;5039993;28;66714;-33
2022/04/24 07:48:51;;;;;;;4.07;3.78;;;;;;;32.68;40.10;100398.72;5024400;28;69566;-33
2022/04/24 07:51:21;;;;;;;4.15;3.95;;;;;;;32.67;39.81;100390.78;5034935;28;65748;-34
2022/04/24 07:53:51;;;;;;;4.70;3.85;;;;;;;32.62;39.85;100379.84;5044201;28;69992;-33
2022/04/24 07:56:21;;;;;;;3.63;3.42;;;;;;;32.58;39.75;100365.94;5034921;28;66346;-34
2022/04/24 07:58:52;;;;;;;5.30;3.63;;;;;;;32.59;39.99;100367.56;5036403;28;69430;-33
2022/04/24 08:01:22;;;;;;;4.43;4.03;;;;;;;32.62;39.99;100366.25;5031354;28;65651;-33
2022/04/24 08:03:52;;;;;;;3.70;3.40;;;;;;;32.62;39.58;100366.25;5027641;28;69180;-35
2022/04/24 08:06:22;;;;;;;4.63;3.90;;;;;;;32.53;39.67;100362.28;5039250;28;66097;-32
2022/04/24 08:08:53;;;;;;;5.60;3.60;;;;;;;32.59;39.70;100366.75;5038514;28;69831;-34
2022/04/24 08:11:23;;;;;;;12.45;3.58;;;;;;;32.57;40.29;100366.16;5038542;28;65473;-33
2022/04/24 08:13:53;;;;;;;5.00;3.20;;;;;;;32.57;40.36;100374.31;5037261;28;69208;-34
2022/04/24 08:16:26;;;;;;;6.50;3.60;;;;;;;32.54;42.02;100366.66;5039815;28;65445;-32
2022/04/24 08:19:00;;;;;;;5.28;3.20;;;;;;;32.62;41.79;100366.25;5036647;28;69484;-32
2022/04/24 08:21:30;;;;;;;4.15;3.40;;;;;;;32.56;41.46;100353.66;5025283;28;66435;-32
2022/04/24 08:24:00;;;;;;;6.70;3.30;;;;;;;32.45;41.14;100325.47;5034519;28;70275;-34
2022/04/24 08:26:31;;;;;;;3.30;3.00;;;;;;;32.54;41.01;100350.34;5036947;28;66087;-33
2022/04/24 08:29:01;;;;;;;3.40;3.20;;;;;;;32.42;41.06;100342.25;5038943;28;70410;-33
2022/04/24 08:31:31;;;;;;;4.82;3.38;;;;;;;32.47;40.98;100374.97;5041330;28;65679;-32
2022/04/24 08:34:01;;;;;;;3.85;3.30;;;;;;;32.47;40.77;100373.06;5042483;28;70116;-32
2022/04/24 08:36:32;;;;;;;3.58;3.28;;;;;;;32.42;40.59;100362.06;5033321;28;65962;-33
2022/04/24 08:39:02;;;;;;;2.85;2.65;;;;;;;32.31;40.62;100343.94;5041705;28;69876;-35
2022/04/24 08:41:37;;;;;;;3.53;3.25;;;;;;;31.95;40.19;100283.56;5040824;28;65577;-33
2022/04/24 08:44:08;;;;;;;3.00;2.80;;;;;;;32.37;40.30;100347.59;5038813;28;70086;-33
2022/04/24 08:46:39;;;;;;;3.28;2.88;;;;;;;32.33;40.29;100352.69;5039652;28;65673;-33
2022/04/24 08:49:10;;;;;;;3.10;2.90;;;;;;;32.33;40.11;100363.53;5021411;28;70432;-33
2022/04/24 08:51:41;;;;;;;3.40;3.20;;;;;;;32.03;39.92;100321.16;5021814;28;66030;-32
2022/04/24 08:54:12;;;;;;;2.88;2.58;;;;;;;31.72;40.13;100261.94;5034402;28;70175;-33
2022/04/24 08:56:42;;;;;;;3.13;2.80;;;;;;;32.17;39.91;100329.84;5036625;28;66160;-35
2022/04/24 08:59:12;;;;;;;5.85;2.42;;;;;;;32.23;39.78;100353.31;5040336;28;69121;-35
2022/04/24 09:01:45;;;;;;;3.17;2.97;;;;;;;32.23;39.88;100369.63;5030845;28;66933;-33
2022/04/24 09:04:16;;;;;;;2.70;2.50;;;;;;;32.19;39.96;100373.03;5042159;28;70099;-33
2022/04/24 09:06:59;;;;;;;3.05;2.85;;;;;;;32.12;39.08;100372.34;5034567;28;66235;-32
2022/04/24 09:09:32;;;;;;;3.08;2.40;;;;;;;32.12;39.36;100367.72;5020677;28;70361;-33
2022/04/24 09:12:13;;;;;;;5.95;2.35;;;;;;;31.87;38.69;100319.19;5029826;28;65731;-32
2022/04/24 09:14:50;;;;;;;4.82;2.63;;;;;;;32.05;38.93;100356.22;5034109;28;69709;-35
2022/04/24 09:17:29;;;;;;;10.75;2.60;;;;;;;31.93;39.37;100339.97;5042481;28;66386;-34
2022/04/24 09:20:00;;;;;;;3.80;2.80;;;;;;;32.01;39.45;100353.16;5038186;28;69962;-35
2022/04/24 09:22:38;;;;;;;5.22;2.55;;;;;;;31.99;39.28;100362.59;5041835;28;66584;-35
2022/04/24 09:25:10;;;;;;;5.15;2.85;;;;;;;31.92;40.66;100343.75;5031735;28;70150;-35
2022/04/24 09:27:40;;;;;;;6.28;2.97;;;;;;;32.09;41.37;100345.69;5041812;28;65691;-35
2022/04/24 09:30:14;;;;;;;5.65;2.80;;;;;;;32.29;42.44;100373.25;5038503;28;69949;-35
2022/04/24 09:32:50;;;;;;;4.22;2.90;;;;;;;32.38;43.11;100371.78;5039999;28;65558;-36
2022/04/24 09:35:36;;;;;;;4.97;2.83;;;;;;;32.42;43.30;100372.09;5038675;28;68698;-35
2022/04/24 09:38:14;;;;;;;5.60;4.28;;;;;;;32.56;48.01;100370.78;5056739;28;66185;-34
2022/04/24 09:40:47;;;;;;;7.43;6.75;;;;;;;32.41;49.21;100306.16;5041411;28;69618;-35
2022/04/24 09:43:19;;;;;;;14.32;9.43;;;;;;;32.35;51.81;100266.41;5056265;28;66061;-35
2022/04/24 09:45:50;;;;;;;;;;;;;;;32.72;54.26;100355.59;5039971;28;69104;-36
2022/04/24 09:48:22;;;;;;;20.05;10.55;;;;;;;33.06;52.80;100371.91;5041825;28;66694;-34
2022/04/24 09:50:53;;;;;;;21.45;10.02;;;;;;;33.17;52.92;100384.59;5040975;28;69505;-33
2022/04/24 09:53:23;;;;;;;21.48;9.23;;;;;;;33.08;54.08;100364.34;5041993;28;65399;-35
2022/04/24 09:55:54;;;;;;;18.25;8.63;;;;;;;33.23;54.26;100388.22;5041449;28;70400;-34
2022/04/24 09:58:25;;;;;;;11.23;8.30;;;;;;;33.36;54.63;100405.00;5041955;28;66357;-34
2022/04/24 10:00:56;;;;;;;11.63;7.32;;;;;;;32.98;55.13;100335.09;5030296;28;69660;-34
2022/04/24 10:03:28;;;;;;;13.40;7.57;;;;;;;33.44;55.20;100417.38;5044713;28;66899;-32
2022/04/24 10:06:00;;;;;;;;;;;;;;;33.22;57.95;100425.44;5028482;28;69271;-34
2022/04/24 10:08:32;;;;;;;10.85;7.00;;;;;;;33.49;56.12;100430.19;5071324;28;66136;-33
2022/04/24 10:11:07;;;;;;;8.13;7.35;;;;;;;33.59;57.22;100438.56;5018191;28;69962;-39
2022/04/24 10:13:42;;;;;;;12.93;6.95;;;;;;;33.64;56.85;100448.69;5033888;28;43456;-40
2022/04/24 10:16:15;;;;;;;11.30;6.65;;;;;;;33.65;56.87;100458.50;5035236;28;69379;-38
2022/04/24 10:18:53;;;;;;;9.57;5.93;;;;;;;33.33;58.12;100412.84;5032828;28;65680;-36
2022/04/24 10:21:54;;;;;;;7.38;6.45;;;;;;;33.62;58.26;100467.16;5033216;28;69656;-37
2022/04/24 10:24:25;;;;;;;15.30;5.78;;;;;;;33.71;56.89;100471.94;5030913;28;66260;-39
2022/04/24 10:26:59;;;;;;;12.25;5.38;;;;;;;33.74;57.15;100463.28;5039848;28;70251;-38
2022/04/24 10:29:30;;;;;;;11.93;7.05;;;;;;;33.71;57.08;100455.63;5034663;28;65411;-39
2022/04/24 10:32:00;;;;;;;7.53;5.75;;;;;;;33.63;57.54;100450.59;5027966;28;70282;-39
2022/04/24 10:34:39;;;;;;;14.65;5.65;;;;;;;33.69;58.46;100455.03;5036141;28;66767;-38
2022/04/24 10:37:10;;;;;;;9.50;5.60;;;;;;;33.73;58.15;100453.44;5039654;28;70512;-38
2022/04/24 10:39:42;;;;;;;10.68;5.40;;;;;;;33.68;58.04;100439.75;5023219;28;65263;-42
2022/04/24 10:42:14;;;;;;;9.85;6.93;;;;;;;33.72;57.98;100434.66;5031787;28;70288;-39
2022/04/24 10:44:52;;;;;;;13.85;9.50;;;;;;;33.91;57.87;100451.53;5032964;28;66547;-38
2022/04/24 10:47:23;;;;;;;10.88;9.45;;;;;;;33.94;57.57;100453.75;5039424;28;70064;-37
2022/04/24 10:50:08;;;;;;;11.93;9.13;;;;;;;33.99;57.39;100472.84;5038812;28;66027;-37
2022/04/24 10:52:43;;;;;;;7.63;6.80;;;;;;;33.69;56.72;100403.34;5023911;28;69507;-38
2022/04/24 10:55:21;;;;;;;11.43;6.18;;;;;;;33.71;56.58;100395.78;5020656;28;66456;-39
2022/04/24 10:58:00;;;;;;;7.32;5.40;;;;;;;33.71;56.92;100395.78;5023629;28;70551;-38
2022/04/24 11:00:34;;;;;;;8.43;4.90;;;;;;;33.70;56.95;100410.41;5024861;28;66808;-37
2022/04/24 11:03:22;;;;;;;5.40;4.90;;;;;;;34.02;57.54;100488.69;5039708;28;69732;-39
2022/04/24 11:06:00;;;;;;;5.30;4.65;;;;;;;34.11;57.37;100508.97;5037583;28;65313;-38
2022/04/24 11:08:41;;;;;;;4.85;4.40;;;;;;;34.08;57.21;100520.38;5024127;28;69553;-38
2022/04/24 11:11:15;;;;;;;8.52;4.90;;;;;;;34.11;57.85;100514.44;5027940;28;66050;-39
2022/04/24 11:13:46;;;;;;;8.13;4.72;;;;;;;34.12;57.63;100521.50;5025285;28;69098;-36
2022/04/24 11:16:16;;;;;;;10.00;5.35;;;;;;;34.11;57.86;100525.31;5024017;28;66366;-38
2022/04/24 11:18:47;;;;;;;12.38;6.28;;;;;;;34.18;57.35;100525.13;5028731;28;68952;-38
2022/04/24 11:21:19;;;;;;;10.07;5.63;;;;;;;34.22;57.85;100543.44;5033499;28;66201;-37
2022/04/24 11:23:57;;;;;;;7.03;5.57;;;;;;;34.18;57.94;100528.66;5019912;28;70157;-39
2022/04/24 11:26:28;;;;;;;8.70;5.47;;;;;;;34.16;58.51;100549.88;5025328;28;66053;-37
2022/04/24 11:29:09;;;;;;;9.23;8.40;;;;;;;34.04;58.21;100546.41;5030550;28;70616;-41
2022/04/24 11:31:51;;;;;;;10.88;9.50;;;;;;;34.00;58.45;100550.69;5030671;28;66330;-38
2022/04/24 11:34:23;;;;;;;16.38;8.00;;;;;;;34.08;57.88;100574.00;5033837;28;70233;-37
2022/04/24 11:36:59;;;;;;;18.38;7.78;;;;;;;34.16;58.86;100593.44;5034256;28;65073;-37
2022/04/24 11:39:30;;;;;;;11.40;8.15;;;;;;;34.16;58.84;100576.28;5032197;28;70428;-38